Campanya meteocatpedra

Dades EMA els Alamús

?
?
Resum diari 22:30 TU
Dades diàries de l'estació meteorològica
Temperatura mitjana 22.7 °C
Temperatura màxima 31.8 °C 15:19 TU
Temperatura mínima 12.5 °C 4:10 TU
Humitat relativa mitjana 48%
Precipitació acumulada 0.0 mm
Ratxa màxima del vent (2 m) 22.0 km/h - 257º 11:38 TU

El tram horari està expressat en Temps Universal (TU). Cal sumar una hora en horari d'hivern i dues en horari d'estiu per passar a l'hora oficial.

els Alamús

Metadades estació meteorol´gica
Municipi Els Alamús
Comarca Segrià
Altitud 235 m
Data alta 22.06.2011
Estat actual Operativa
Dades de període
Període
TU
TM
°C
TX
°C
TN
°C
HRM
%
PPT
mm
VVM (2 m)
km/h
DVM (2 m)
graus
VVX (2 m)
km/h
00:00 - 00:30 16.7 17.5 15.9 70 0.0 0.4 13 2.9
00:30 - 01:00 15.3 15.8 14.9 79 0.0 0.0 0 0.0
01:00 - 01:30 14.8 15.0 14.6 81 0.0 0.0 319 0.7
01:30 - 02:00 14.1 14.6 13.7 81 0.0 0.0 0 0.0
02:00 - 02:30 13.5 13.7 13.3 85 0.0 0.0 186 2.5
02:30 - 03:00 13.3 13.4 13.2 86 0.0 0.4 156 2.9
03:00 - 03:30 13.2 13.3 12.9 85 0.0 0.0 183 1.4
03:30 - 04:00 12.7 12.8 12.6 86 0.0 0.0 163 2.2
04:00 - 04:30 12.9 13.6 12.5 86 0.0 2.2 57 5.4
04:30 - 05:00 13.4 13.6 13.3 82 0.0 2.9 74 5.4
05:00 - 05:30 14.4 15.3 13.7 79 0.0 2.2 81 5.0
05:30 - 06:00 16.1 16.6 15.4 73 0.0 2.2 69 5.4
06:00 - 06:30 18.3 19.4 16.7 66 0.0 1.1 102 5.4
06:30 - 07:00 19.6 20.0 19.0 59 0.0 3.6 76 6.8
07:00 - 07:30 21.0 22.2 20.1 52 0.0 2.5 57 6.5
07:30 - 08:00 22.6 22.9 22.3 46 0.0 2.5 84 7.2
08:00 - 08:30 23.1 23.9 22.5 46 0.0 4.3 82 9.4
08:30 - 09:00 24.5 25.5 23.9 42 0.0 2.5 75 8.6
09:00 - 09:30 26.1 26.5 25.6 35 0.0 2.2 36 6.1
09:30 - 10:00 26.9 27.2 26.1 32 0.0 2.5 251 6.5
10:00 - 10:30 27.4 28.3 26.3 31 0.0 2.2 269 8.3
10:30 - 11:00 28.4 29.0 28.0 28 0.0 2.9 256 9.0
11:00 - 11:30 28.6 29.1 28.2 27 0.0 3.2 254 10.1
11:30 - 12:00 28.8 29.2 28.6 28 0.0 3.2 229 22.0
12:00 - 12:30 29.7 30.1 29.3 27 0.0 3.6 241 9.7
12:30 - 13:00 29.9 30.6 29.3 27 0.0 2.5 298 12.2
13:00 - 13:30 30.3 30.9 29.8 25 0.0 2.2 242 8.6
13:30 - 14:00 30.4 30.9 29.8 25 0.0 2.2 339 6.5
14:00 - 14:30 30.8 31.5 29.9 25 0.0 2.9 273 10.1
14:30 - 15:00 30.9 31.5 30.3 25 0.0 2.5 266 7.9
15:00 - 15:30 31.5 31.8 31.2 23 0.0 2.5 261 9.4
15:30 - 16:00 31.0 31.6 30.3 24 0.0 2.9 359 8.3
16:00 - 16:30 31.5 31.7 31.2 24 0.0 2.5 284 9.4
16:30 - 17:00 30.4 31.4 29.3 24 0.0 6.1 206 17.6
17:00 - 17:30 28.9 29.3 28.5 25 0.0 6.1 189 18.0
17:30 - 18:00 28.2 28.5 27.8 26 0.0 5.4 189 14.4
18:00 - 18:30 27.2 27.8 26.5 28 0.0 4.7 191 15.5
18:30 - 19:00 25.7 26.5 24.6 31 0.0 3.2 183 8.3
19:00 - 19:30 24.0 24.6 23.1 35 0.0 2.9 176 9.0
19:30 - 20:00 22.7 23.0 22.1 38 0.0 2.9 174 5.8
20:00 - 20:30 21.8 22.2 21.2 40 0.0 2.5 175 8.3
20:30 - 21:00 20.4 21.1 19.7 47 0.0 0.7 354 4.3
21:00 - 21:30 19.1 19.6 18.9 54 0.0 0.4 45 4.0
21:30 - 22:00 18.3 19.1 17.6 61 0.0 0.7 71 4.7
22:00 - 22:30 18.6 18.9 18.3 56 0.0 2.5 85 5.0
22:30 - 23:00 17.8 18.4 17.0 59 0.0 1.1 133 3.6
23:00 - 23:30 (s/d) (s/d) (s/d) (s/d) (s/d) (s/d) (s/d) (s/d)

Les dades en taronja només han passat un control de qualitat automàtic. Resta pendent la seva validació definitiva.